createdAt,value
2018-02-16T00:01:01.203Z,63.10
2018-02-16T00:03:28.807Z,60.20
2018-02-16T00:05:56.539Z,59.40
2018-02-16T00:08:24.163Z,57.10
2018-02-16T00:10:51.759Z,59.90
2018-02-16T00:13:19.296Z,57.77
2018-02-16T00:15:47.607Z,57.83
2018-02-16T00:18:17.871Z,60.88
2018-02-16T00:20:45.455Z,59.40
2018-02-16T00:23:25.903Z,58.10
2018-02-16T00:29:01.435Z,56.23
2018-02-16T00:31:28.975Z,56.80
2018-02-16T00:33:56.517Z,55.50
2018-02-16T00:36:24.465Z,60.57
2018-02-16T00:38:52.003Z,59.60
2018-02-16T00:41:19.587Z,56.78
2018-02-16T00:43:47.159Z,59.33
2018-02-16T00:46:16.487Z,58.57
2018-02-16T00:48:44.019Z,60.90
2018-02-16T00:51:11.590Z,57.80
2018-02-16T00:53:39.179Z,58.83
2018-02-16T00:56:06.723Z,56.43
2018-02-16T00:58:34.511Z,61.10
2018-02-16T01:01:02.064Z,54.37
2018-02-16T01:03:29.603Z,62.50
2018-02-16T01:05:57.170Z,58.13
2018-02-16T01:08:24.716Z,58.27
2018-02-16T01:10:52.255Z,54.93
2018-02-16T01:13:19.823Z,52.72
2018-02-16T01:15:47.354Z,56.07
2018-02-16T01:18:16.321Z,54.78
2018-02-16T01:20:44.211Z,56.97
2018-02-16T01:23:11.742Z,57.20
2018-02-16T01:25:40.008Z,53.03
2018-02-16T01:28:07.574Z,58.37
2018-02-16T01:30:35.115Z,53.20
2018-02-16T01:33:02.655Z,49.80
2018-02-16T01:35:30.223Z,52.73
2018-02-16T01:37:58.537Z,55.13
2018-02-16T01:40:26.839Z,50.77
2018-02-16T01:42:55.015Z,53.72
2018-02-16T01:45:22.556Z,51.90
2018-02-16T01:47:50.095Z,55.83
2018-02-16T01:50:17.667Z,55.27
2018-02-16T01:52:45.202Z,56.77
2018-02-16T01:55:14.436Z,58.33
2018-02-16T01:57:42.007Z,59.80
2018-02-16T02:00:09.549Z,63.38
2018-02-16T02:02:37.095Z,68.10
2018-02-16T02:05:05.510Z,68.57
2018-02-16T02:07:33.051Z,61.15
2018-02-16T02:10:00.599Z,63.33
2018-02-16T02:12:28.172Z,59.77
2018-02-16T02:14:55.711Z,60.27
2018-02-16T02:17:23.247Z,59.40
2018-02-16T02:19:50.811Z,55.67
2018-02-16T02:22:19.120Z,62.07
2018-02-16T02:24:46.666Z,63.00
2018-02-16T02:27:25.851Z,60.90
2018-02-16T02:32:33.741Z,60.17
2018-02-16T02:35:01.278Z,59.00
2018-02-16T02:37:28.839Z,65.40
2018-02-16T02:39:56.436Z,62.27
2018-02-16T02:42:23.982Z,58.97
2018-02-16T02:44:51.552Z,57.58
2018-02-16T02:47:19.647Z,63.10
2018-02-16T02:49:47.187Z,59.27
2018-02-16T02:52:16.426Z,55.13
2018-02-16T02:54:44.755Z,57.77
2018-02-16T02:57:12.301Z,55.70
2018-02-16T02:59:39.841Z,53.57
2018-02-16T03:02:07.420Z,59.92
2018-02-16T03:04:35.720Z,52.57
2018-02-16T03:07:03.261Z,53.80
2018-02-16T03:09:31.043Z,54.77
2018-02-16T03:11:58.586Z,53.07
2018-02-16T03:14:26.136Z,47.87
2018-02-16T03:16:53.710Z,52.28
2018-02-16T03:19:21.251Z,43.67
2018-02-16T03:21:48.806Z,48.37
2018-02-16T03:24:16.571Z,46.60
2018-02-16T03:26:44.131Z,46.40
2018-02-16T03:29:12.207Z,46.53
2018-02-16T03:31:40.274Z,47.10
2018-02-16T03:34:07.810Z,46.13
2018-02-16T03:36:35.347Z,47.37
2018-02-16T03:39:02.923Z,48.77
2018-02-16T03:41:30.493Z,45.97
2018-02-16T03:43:58.808Z,46.40
2018-02-16T03:46:26.368Z,45.70
2018-02-16T03:48:53.907Z,40.70
2018-02-16T03:51:21.474Z,43.30
2018-02-16T03:53:49.591Z,46.90
2018-02-16T03:56:17.126Z,44.63
2018-02-16T03:58:44.666Z,45.80
2018-02-16T04:01:12.235Z,45.70
2018-02-16T04:03:39.772Z,42.13
2018-02-16T04:06:08.071Z,41.67
2018-02-16T04:08:35.643Z,42.20
2018-02-16T04:11:03.187Z,40.87
2018-02-16T04:13:30.733Z,44.17
2018-02-16T04:15:58.602Z,43.90
2018-02-16T04:18:26.906Z,44.10
2018-02-16T04:20:54.447Z,44.27
2018-02-16T04:23:22.011Z,43.40
2018-02-16T04:25:49.547Z,42.88
2018-02-16T04:28:17.086Z,45.87
2018-02-16T04:30:45.044Z,43.77
2018-02-16T04:33:14.705Z,41.13
2018-02-16T04:35:42.250Z,43.40
2018-02-16T04:38:10.904Z,42.77
2018-02-16T04:40:38.442Z,40.17
2018-02-16T04:43:05.993Z,41.13
2018-02-16T04:45:33.563Z,37.90
2018-02-16T04:48:01.103Z,39.20
2018-02-16T04:50:28.647Z,44.78
2018-02-16T04:52:56.207Z,50.40
2018-02-16T04:55:23.750Z,45.80
2018-02-16T04:57:51.287Z,45.20
2018-02-16T05:00:19.550Z,42.27
2018-02-16T05:02:47.107Z,40.90
2018-02-16T05:05:15.551Z,43.08
2018-02-16T05:07:43.112Z,38.87
2018-02-16T05:10:10.652Z,37.67
2018-02-16T05:12:38.960Z,38.50
2018-02-16T05:15:06.531Z,38.40
2018-02-16T05:17:34.071Z,39.03
2018-02-16T05:20:01.611Z,37.50
2018-02-16T05:22:29.399Z,38.07
2018-02-16T05:24:56.931Z,39.40
2018-02-16T05:27:25.240Z,37.92
2018-02-16T05:29:52.807Z,37.50
2018-02-16T05:32:20.867Z,34.92
2018-02-16T05:34:48.406Z,34.22
2018-02-16T05:37:16.633Z,35.63
2018-02-16T05:39:44.177Z,34.60
2018-02-16T05:42:11.718Z,35.20
2018-02-16T05:44:39.952Z,34.60
2018-02-16T05:47:08.280Z,35.27
2018-02-16T05:49:35.823Z,34.20
2018-02-16T05:52:03.386Z,35.15
2018-02-16T05:54:30.923Z,33.03
2018-02-16T05:56:59.232Z,32.60
2018-02-16T05:59:26.802Z,33.83
2018-02-16T06:01:54.357Z,36.00
2018-02-16T06:04:21.918Z,33.53
2018-02-16T06:06:49.698Z,33.90
2018-02-16T06:09:17.241Z,32.50
2018-02-16T06:11:45.583Z,37.70
2018-02-16T06:14:25.947Z,33.38
2018-02-16T06:19:08.505Z,32.75
2018-02-16T06:21:36.153Z,33.20
2018-02-16T06:24:03.683Z,35.23
2018-02-16T06:26:31.243Z,34.93
2018-02-16T06:28:59.611Z,35.13
2018-02-16T06:31:27.183Z,39.35
2018-02-16T06:33:55.643Z,36.20
2018-02-16T06:36:23.211Z,35.13
2018-02-16T06:38:51.652Z,34.77
2018-02-16T06:41:19.309Z,35.38
2018-02-16T06:43:47.027Z,34.70
2018-02-16T06:46:15.525Z,38.95
2018-02-16T06:48:43.084Z,37.57
2018-02-16T06:51:12.083Z,34.63
2018-02-16T06:53:39.703Z,35.30
2018-02-16T06:56:07.248Z,34.73
2018-02-16T06:58:35.106Z,34.13
2018-02-16T07:01:02.729Z,31.27
2018-02-16T07:03:30.786Z,33.43
2018-02-16T07:05:58.354Z,29.97
2018-02-16T07:08:26.651Z,32.43
2018-02-16T07:10:54.192Z,30.87
2018-02-16T07:13:22.742Z,30.30
2018-02-16T07:15:50.275Z,28.10
2018-02-16T07:18:18.650Z,28.97
2018-02-16T07:20:46.224Z,29.43
2018-02-16T07:23:16.433Z,28.95
2018-02-16T07:25:43.988Z,29.20
2018-02-16T07:28:11.567Z,27.35
2018-02-16T07:30:39.096Z,30.40
2018-02-16T07:33:06.638Z,29.20
2018-02-16T07:35:34.871Z,26.53
2018-02-16T07:38:02.401Z,24.30
2018-02-16T07:40:29.975Z,24.60
2018-02-16T07:42:57.548Z,23.12
2018-02-16T07:45:25.129Z,22.80
2018-02-16T07:47:52.718Z,21.50
2018-02-16T07:50:20.321Z,20.27
2018-02-16T07:52:47.943Z,19.43
2018-02-16T07:55:16.352Z,18.40
2018-02-16T07:57:44.228Z,17.00
2018-02-16T08:00:11.759Z,19.40
2018-02-16T08:02:39.296Z,16.80
2018-02-16T08:05:07.692Z,14.60
2018-02-16T08:07:35.239Z,15.20
2018-02-16T08:10:03.547Z,14.73
2018-02-16T08:12:31.127Z,14.20
2018-02-16T08:14:58.715Z,17.17
2018-02-16T08:17:26.308Z,22.03
2018-02-16T08:19:55.249Z,20.83
2018-02-16T08:22:22.783Z,19.60
2018-02-16T08:24:50.329Z,17.80
2018-02-16T08:27:17.900Z,14.33
2018-02-16T08:29:45.531Z,12.90
2018-02-16T08:32:23.678Z,13.35
2018-02-16T08:39:37.130Z,11.97
2018-02-16T08:42:04.687Z,14.23
2018-02-16T08:44:32.500Z,13.10
2018-02-16T08:47:00.146Z,12.13
2018-02-16T08:49:27.682Z,13.13
2018-02-16T08:51:55.279Z,12.83
2018-02-16T08:54:22.859Z,12.67
2018-02-16T08:56:50.526Z,11.20
2018-02-16T08:59:18.835Z,11.00
2018-02-16T09:01:47.190Z,10.70
2018-02-16T09:04:16.531Z,11.80
2018-02-16T09:06:44.894Z,11.90
2018-02-16T09:09:12.466Z,10.07
2018-02-16T09:11:39.995Z,10.60
2018-02-16T09:14:07.568Z,9.55
2018-02-16T09:16:35.131Z,8.73
2018-02-16T09:19:02.675Z,8.70
2018-02-16T09:21:31.502Z,7.82
2018-02-16T09:23:59.382Z,6.77
2018-02-16T09:26:26.916Z,7.32
2018-02-16T09:28:54.450Z,6.25
2018-02-16T09:31:22.089Z,7.67
2018-02-16T09:33:49.696Z,7.83
2018-02-16T09:36:17.504Z,6.83
2018-02-16T09:38:46.559Z,7.67
2018-02-16T09:41:16.746Z,7.10
2018-02-16T09:43:45.047Z,7.93
2018-02-16T09:46:14.091Z,7.45
2018-02-16T09:48:41.624Z,7.53
2018-02-16T09:51:09.159Z,7.53
2018-02-16T09:53:36.718Z,6.47
2018-02-16T09:56:04.254Z,6.10
2018-02-16T09:58:32.738Z,6.23
2018-02-16T10:01:01.227Z,5.27
2018-02-16T10:03:28.830Z,5.80
2018-02-16T10:05:56.413Z,6.10
2018-02-16T10:08:24.290Z,5.83
2018-02-16T10:10:51.830Z,5.67
2018-02-16T10:13:19.365Z,5.80
2018-02-16T10:15:46.929Z,6.10
2018-02-16T10:18:15.469Z,7.40
2018-02-16T10:20:45.108Z,7.10
2018-02-16T10:23:13.007Z,6.80
2018-02-16T10:25:40.636Z,5.53
2018-02-16T10:28:08.520Z,8.03
2018-02-16T10:30:36.158Z,6.60
2018-02-16T10:33:03.698Z,5.83
2018-02-16T10:35:31.230Z,5.67
2018-02-16T10:37:58.806Z,5.87
2018-02-16T10:40:26.350Z,5.47
2018-02-16T10:42:54.142Z,6.50
2018-02-16T10:45:21.711Z,5.80
2018-02-16T10:47:50.019Z,5.50
2018-02-16T10:50:17.600Z,6.95
2018-02-16T10:52:45.457Z,5.70
2018-02-16T10:55:15.500Z,5.72
2018-02-16T10:57:43.030Z,5.93
2018-02-16T11:00:10.590Z,6.55
2018-02-16T11:05:47.123Z,6.60
2018-02-16T11:08:22.059Z,6.62
2018-02-16T11:10:50.303Z,7.00
2018-02-16T11:13:18.438Z,6.67
2018-02-16T11:15:45.962Z,6.80
2018-02-16T11:18:15.350Z,5.50
2018-02-16T11:20:44.139Z,6.80
2018-02-16T11:23:11.679Z,9.03
2018-02-16T11:25:39.414Z,10.40
2018-02-16T11:28:08.056Z,9.57
2018-02-16T11:30:36.515Z,7.83
2018-02-16T11:33:04.518Z,7.87
2018-02-16T11:35:32.095Z,7.23
2018-02-16T11:38:00.391Z,7.70
2018-02-16T11:40:27.971Z,7.50
2018-02-16T11:42:55.802Z,7.97
2018-02-16T11:45:23.370Z,7.90
2018-02-16T11:47:51.684Z,7.20
2018-02-16T11:50:19.991Z,7.70
2018-02-16T11:52:47.523Z,7.83
2018-02-16T11:55:17.703Z,8.68
2018-02-16T11:57:45.248Z,7.73
2018-02-16T12:00:14.471Z,8.40
2018-02-16T12:02:42.557Z,8.43
2018-02-16T12:05:10.918Z,9.07
2018-02-16T12:07:38.451Z,8.18
2018-02-16T12:10:06.095Z,8.60
2018-02-16T12:12:33.651Z,8.47
2018-02-16T12:15:02.649Z,9.77
2018-02-16T12:17:30.976Z,9.97
2018-02-16T12:19:58.958Z,9.30
2018-02-16T12:22:26.507Z,10.10
2018-02-16T12:24:54.067Z,9.60
2018-02-16T12:27:21.625Z,11.68
2018-02-16T12:29:49.188Z,11.20
2018-02-16T12:32:16.780Z,10.83
2018-02-16T12:34:44.347Z,10.33
2018-02-16T12:37:11.923Z,8.73
2018-02-16T12:39:40.417Z,8.23
2018-02-16T12:42:08.741Z,8.97
2018-02-16T12:44:37.016Z,8.40
2018-02-16T12:47:05.368Z,10.13
2018-02-16T12:49:37.164Z,10.27
2018-02-16T12:52:04.747Z,9.60
2018-02-16T12:54:33.865Z,10.20
2018-02-16T12:57:02.272Z,8.98
2018-02-16T12:59:30.747Z,9.57
2018-02-16T13:01:59.282Z,8.83
2018-02-16T13:04:26.853Z,9.60
2018-02-16T13:06:54.976Z,9.00
2018-02-16T13:09:42.255Z,11.38
2018-02-16T13:12:09.812Z,10.17
2018-02-16T13:14:39.342Z,10.50
2018-02-16T13:17:07.109Z,16.23
2018-02-16T13:19:34.659Z,22.40
2018-02-16T13:22:02.202Z,30.17
2018-02-16T13:24:29.777Z,24.60
2018-02-16T13:26:57.328Z,23.57
2018-02-16T13:29:24.941Z,12.00
2018-02-16T15:41:46.136Z,23.00
2018-02-16T15:44:25.779Z,22.45
2018-02-16T15:52:29.187Z,20.35
2018-02-16T15:54:56.759Z,20.30
2018-02-16T15:57:24.317Z,22.77
2018-02-16T15:59:52.145Z,23.30
2018-02-16T16:02:20.468Z,23.42
2018-02-16T16:04:48.023Z,23.00
2018-02-16T16:07:17.256Z,24.50
2018-02-16T16:09:44.806Z,24.73
2018-02-16T16:12:12.366Z,23.70
2018-02-16T16:14:39.977Z,21.77
2018-02-16T16:17:07.536Z,24.95
2018-02-16T16:19:35.091Z,23.00
2018-02-16T16:22:03.056Z,23.50
2018-02-16T16:24:30.607Z,29.10
2018-02-16T16:26:58.159Z,29.17
2018-02-16T16:29:25.752Z,29.27
2018-02-16T16:31:53.310Z,28.45
2018-02-16T16:34:20.886Z,26.60
2018-02-16T16:36:48.478Z,27.62
2018-02-16T16:39:16.468Z,26.73
2018-02-16T16:41:44.023Z,27.97
2018-02-16T16:44:12.200Z,27.10
2018-02-16T16:46:39.735Z,29.00
2018-02-16T16:49:07.294Z,31.83
2018-02-16T16:51:34.857Z,31.40
2018-02-16T16:54:02.395Z,36.10
2018-02-16T16:56:29.939Z,38.08
2018-02-16T16:58:57.502Z,47.35
2018-02-16T17:01:25.041Z,39.47
2018-02-16T17:03:53.359Z,37.77
2018-02-16T17:06:21.442Z,40.10
2018-02-16T17:08:48.979Z,41.77
2018-02-16T17:11:16.566Z,39.53
2018-02-16T17:13:44.822Z,39.07
2018-02-16T17:16:12.492Z,39.10
2018-02-16T17:18:40.792Z,41.90
2018-02-16T17:21:08.381Z,46.97
2018-02-16T17:23:35.928Z,54.63
2018-02-16T17:26:03.484Z,86.83
2018-02-16T17:28:31.670Z,80.57
2018-02-16T17:30:59.211Z,67.50
2018-02-16T17:33:26.772Z,57.50
2018-02-16T17:35:54.335Z,53.07
2018-02-16T17:38:21.875Z,55.20
2018-02-16T17:40:49.429Z,56.80
2018-02-16T17:43:19.012Z,60.37
2018-02-16T17:45:47.238Z,56.97
2018-02-16T17:48:17.107Z,49.03
2018-02-16T17:50:45.937Z,47.70
2018-02-16T17:53:15.539Z,50.67
2018-02-16T17:55:43.923Z,46.97
2018-02-16T17:58:11.524Z,49.80
2018-02-16T18:00:39.799Z,44.70
2018-02-16T18:03:07.396Z,46.80
2018-02-16T18:05:57.352Z,49.83
2018-02-16T18:08:24.907Z,52.80
2018-02-16T18:10:52.478Z,51.22
2018-02-16T18:13:20.060Z,44.80
2018-02-16T18:15:48.425Z,51.20
2018-02-16T18:18:16.443Z,53.70
2018-02-16T18:20:44.816Z,51.57
2018-02-16T18:23:14.047Z,49.20
2018-02-16T18:25:41.583Z,44.17
2018-02-16T18:28:09.679Z,43.97
2018-02-16T18:30:37.279Z,44.97
2018-02-16T18:33:04.820Z,44.80
2018-02-16T18:35:32.394Z,45.73
2018-02-16T18:38:00.714Z,47.30
2018-02-16T18:40:28.255Z,46.78
2018-02-16T18:42:55.824Z,46.70
2018-02-16T18:45:23.380Z,45.07
2018-02-16T18:47:51.747Z,48.73
2018-02-16T18:50:20.007Z,51.70
2018-02-16T18:52:47.555Z,48.73
2018-02-16T18:55:16.563Z,41.95
2018-02-16T18:57:44.147Z,43.10
2018-02-16T19:00:11.690Z,42.65
2018-02-16T19:02:39.822Z,43.50
2018-02-16T19:05:08.764Z,46.50
2018-02-16T19:07:36.371Z,55.63
2018-02-16T19:10:04.685Z,52.10
2018-02-16T19:12:35.913Z,43.40
2018-02-16T19:15:03.476Z,60.72
2018-02-16T19:17:31.026Z,48.37
2018-02-16T19:19:58.601Z,46.90
2018-02-16T19:22:26.147Z,44.77
2018-02-16T19:24:53.854Z,43.83
2018-02-16T19:27:21.471Z,43.47
2018-02-16T19:29:49.252Z,44.07
2018-02-16T19:32:16.836Z,42.50
2018-02-16T19:34:45.239Z,39.33
2018-02-16T19:37:14.036Z,42.70
2018-02-16T19:39:42.038Z,85.07
2018-02-16T19:42:10.065Z,56.60
2018-02-16T19:44:38.408Z,58.87
2018-02-16T19:47:06.020Z,55.07
2018-02-16T19:49:34.280Z,52.17
2018-02-16T19:52:01.917Z,52.90
2018-02-16T19:54:31.386Z,52.07
2018-02-16T19:56:59.083Z,40.70
2018-02-16T19:59:26.984Z,40.37
2018-02-16T20:01:56.784Z,50.67
2018-02-16T20:04:24.474Z,41.70
2018-02-16T20:06:52.151Z,42.17
2018-02-16T20:09:20.080Z,48.38
2018-02-16T20:11:48.345Z,39.27
2018-02-16T20:14:17.257Z,41.50
2018-02-16T20:16:45.975Z,48.23
2018-02-16T20:19:24.919Z,46.23
2018-02-16T20:24:24.933Z,35.57
2018-02-16T20:26:52.982Z,42.20
2018-02-16T20:29:21.616Z,40.53
2018-02-16T20:31:49.592Z,45.87
2018-02-16T20:34:17.599Z,40.53
2018-02-16T20:36:45.446Z,47.30
2018-02-16T20:39:21.741Z,43.68
2018-02-16T20:41:49.390Z,39.53
2018-02-16T20:44:27.073Z,46.60
2018-02-16T20:46:54.689Z,41.03
2018-02-16T20:49:22.396Z,50.97
2018-02-16T20:51:50.695Z,43.93
2018-02-16T20:54:18.302Z,46.57
2018-02-16T20:56:46.048Z,40.80
2018-02-16T20:59:23.700Z,44.97
2018-02-16T21:10:31.395Z,55.47
2018-02-16T21:12:59.865Z,56.23
2018-02-16T21:15:27.521Z,53.80
2018-02-16T21:17:55.940Z,47.10
2018-02-16T21:20:24.380Z,42.47
2018-02-16T21:22:52.211Z,45.73
2018-02-16T21:25:19.816Z,39.05
2018-02-16T21:27:47.390Z,43.70
2018-02-16T21:30:17.388Z,50.47
2018-02-16T21:32:45.067Z,46.20
2018-02-16T21:35:14.492Z,47.13
2018-02-16T21:37:42.174Z,52.07
2018-02-16T21:40:10.407Z,50.93
2018-02-16T21:42:38.011Z,56.63
2018-02-16T21:45:05.664Z,53.30
2018-02-16T21:47:34.004Z,49.15
2018-02-16T21:50:02.114Z,57.13
2018-02-16T21:52:31.588Z,59.80
2018-02-16T21:54:59.195Z,44.40
2018-02-16T21:57:27.763Z,50.57
2018-02-16T21:59:55.412Z,70.93
2018-02-16T22:02:23.091Z,63.57
2018-02-16T22:04:50.667Z,57.97
2018-02-16T22:07:18.303Z,50.00
2018-02-16T22:09:45.935Z,49.97
2018-02-16T22:12:14.604Z,46.67
2018-02-16T22:14:42.217Z,60.00
2018-02-16T22:17:09.828Z,51.23
2018-02-16T22:19:38.390Z,54.78
2018-02-16T22:22:07.174Z,47.70
2018-02-16T22:24:34.870Z,50.33
2018-02-16T22:27:03.285Z,57.03
2018-02-16T22:29:31.842Z,51.00
2018-02-16T22:32:00.533Z,52.97
2018-02-16T22:34:29.126Z,52.80
2018-02-16T22:36:57.150Z,56.43
2018-02-16T22:39:24.757Z,40.77
2018-02-16T22:41:52.335Z,47.47
2018-02-16T22:44:20.471Z,45.33
2018-02-16T22:46:49.100Z,53.30
2018-02-16T22:49:17.387Z,49.50
2018-02-16T22:51:45.691Z,40.23
2018-02-16T22:54:25.856Z,45.23
2018-02-16T23:01:00.420Z,41.53
2018-02-16T23:03:27.953Z,44.17
2018-02-16T23:05:56.236Z,48.80
2018-02-16T23:08:25.135Z,46.70
2018-02-16T23:10:52.779Z,49.60
2018-02-16T23:13:20.332Z,45.45
2018-02-16T23:15:47.899Z,46.40
2018-02-16T23:18:16.359Z,50.30
2018-02-16T23:20:43.907Z,50.17
2018-02-16T23:23:12.255Z,54.38
2018-02-16T23:25:39.800Z,52.20
2018-02-16T23:28:07.343Z,52.47
2018-02-16T23:30:35.551Z,52.73
2018-02-16T23:33:03.089Z,51.07
2018-02-16T23:35:30.643Z,46.80
2018-02-16T23:37:58.210Z,44.57
2018-02-16T23:40:25.754Z,42.30
2018-02-16T23:42:53.501Z,42.87
2018-02-16T23:45:22.121Z,47.47
2018-02-16T23:47:50.151Z,45.80
2018-02-16T23:50:17.802Z,44.43
2018-02-16T23:52:45.723Z,44.03
2018-02-16T23:55:23.764Z,41.88
